createdAt,value
2018-05-10T00:00:20.723Z,16.90
2018-05-10T00:02:49.008Z,16.90
2018-05-10T00:05:17.279Z,16.90
2018-05-10T00:07:45.578Z,16.90
2018-05-10T00:10:13.086Z,16.80
2018-05-10T00:12:40.613Z,16.80
2018-05-10T00:15:08.116Z,16.70
2018-05-10T00:17:35.629Z,16.70
2018-05-10T00:20:03.160Z,16.70
2018-05-10T00:22:30.668Z,16.60
2018-05-10T00:24:58.196Z,16.60
2018-05-10T00:27:25.697Z,16.50
2018-05-10T00:29:54.725Z,16.40
2018-05-10T00:32:22.989Z,16.40
2018-05-10T00:34:51.259Z,16.40
2018-05-10T00:37:18.784Z,16.40
2018-05-10T00:39:46.280Z,16.40
2018-05-10T00:42:14.570Z,16.30
2018-05-10T00:44:42.841Z,16.30
2018-05-10T00:47:11.133Z,16.20
2018-05-10T00:49:38.629Z,16.20
2018-05-10T00:52:06.152Z,16.10
2018-05-10T00:54:45.565Z,16.10
2018-05-10T00:57:13.089Z,16.10
2018-05-10T00:59:40.589Z,16.10
2018-05-10T01:02:08.860Z,16.00
2018-05-10T01:04:37.148Z,15.90
2018-05-10T01:07:05.436Z,15.90
2018-05-10T01:09:32.937Z,15.90
2018-05-10T01:12:00.436Z,15.80
2018-05-10T01:14:28.725Z,15.90
2018-05-10T01:16:56.224Z,15.80
2018-05-10T01:19:23.745Z,15.80
2018-05-10T01:21:51.256Z,15.80
2018-05-10T01:24:18.780Z,15.80
2018-05-10T01:26:46.277Z,15.70
2018-05-10T01:29:13.777Z,15.70
2018-05-10T01:31:41.312Z,15.70
2018-05-10T01:34:08.813Z,15.70
2018-05-10T01:36:36.341Z,15.60
2018-05-10T01:39:03.848Z,15.60
2018-05-10T01:41:31.376Z,15.60
2018-05-10T01:43:58.876Z,15.50
2018-05-10T01:46:26.408Z,15.40
2018-05-10T01:48:53.911Z,15.50
2018-05-10T01:51:21.433Z,15.40
2018-05-10T01:53:48.924Z,15.40
2018-05-10T01:56:17.960Z,15.30
2018-05-10T01:58:45.456Z,15.30
2018-05-10T02:01:12.962Z,15.40
2018-05-10T02:03:41.248Z,15.30
2018-05-10T02:06:09.513Z,15.30
2018-05-10T02:08:37.809Z,15.30
2018-05-10T02:11:05.312Z,15.20
2018-05-10T02:13:32.833Z,15.20
2018-05-10T02:16:00.332Z,15.20
2018-05-10T02:18:27.857Z,15.20
2018-05-10T02:20:55.357Z,15.20
2018-05-10T02:23:24.385Z,15.10
2018-05-10T02:25:52.673Z,15.10
2018-05-10T02:28:20.271Z,15.10
2018-05-10T02:30:48.505Z,15.00
2018-05-10T02:33:16.007Z,15.00
2018-05-10T02:35:43.538Z,15.00
2018-05-10T02:38:11.039Z,15.00
2018-05-10T02:40:38.810Z,14.90
2018-05-10T02:43:07.841Z,14.90
2018-05-10T02:45:35.341Z,14.90
2018-05-10T02:48:02.865Z,14.80
2018-05-10T02:50:30.365Z,14.80
2018-05-10T02:52:57.889Z,14.80
2018-05-10T02:55:25.388Z,14.80
2018-05-10T02:57:52.921Z,14.80
2018-05-10T03:00:20.425Z,14.70
2018-05-10T03:02:48.692Z,14.70
2018-05-10T03:05:16.221Z,14.70
2018-05-10T03:07:43.720Z,14.70
2018-05-10T03:10:12.008Z,14.60
2018-05-10T03:12:40.268Z,14.60
2018-05-10T03:15:07.800Z,14.60
2018-05-10T03:17:35.297Z,14.60
2018-05-10T03:20:03.593Z,14.50
2018-05-10T03:22:31.097Z,14.50
2018-05-10T03:24:58.620Z,14.50
2018-05-10T03:27:26.141Z,14.50
2018-05-10T03:29:53.640Z,14.50
2018-05-10T03:32:21.165Z,14.50
2018-05-10T03:34:49.437Z,14.40
2018-05-10T03:37:17.726Z,14.40
2018-05-10T03:39:45.992Z,14.40
2018-05-10T03:42:14.258Z,14.40
2018-05-10T03:44:41.783Z,14.30
2018-05-10T03:47:09.281Z,14.30
2018-05-10T03:49:36.805Z,14.20
2018-05-10T03:52:04.306Z,14.30
2018-05-10T03:54:32.596Z,14.20
2018-05-10T03:57:00.096Z,14.20
2018-05-10T03:59:27.592Z,14.20
2018-05-10T04:01:55.885Z,14.20
2018-05-10T04:04:36.109Z,14.20
2018-05-10T04:07:16.400Z,14.20
2018-05-10T04:09:56.489Z,14.20
2018-05-10T04:12:24.018Z,14.20
2018-05-10T04:14:51.525Z,14.20
2018-05-10T04:17:19.050Z,14.20
2018-05-10T04:19:46.549Z,14.20
2018-05-10T04:22:14.073Z,14.20
2018-05-10T04:24:41.568Z,14.10
2018-05-10T04:27:09.073Z,14.10
2018-05-10T04:29:36.601Z,14.00
2018-05-10T04:32:04.105Z,14.00
2018-05-10T04:34:31.629Z,14.00
2018-05-10T04:36:59.896Z,14.00
2018-05-10T04:39:27.420Z,14.00
2018-05-10T04:41:54.916Z,14.00
2018-05-10T04:44:22.421Z,14.10
2018-05-10T04:46:49.945Z,14.10
2018-05-10T04:49:18.213Z,14.20
2018-05-10T04:51:46.500Z,14.10
2018-05-10T04:54:14.769Z,14.20
2018-05-10T04:56:43.063Z,14.20
2018-05-10T04:59:10.565Z,14.10
2018-05-10T05:01:38.065Z,14.20
2018-05-10T05:04:06.357Z,14.20
2018-05-10T05:06:33.865Z,14.20
2018-05-10T05:09:01.423Z,14.20
2018-05-10T05:11:28.905Z,14.20
2018-05-10T05:13:56.532Z,14.20
2018-05-10T05:16:24.036Z,14.20
2018-05-10T05:18:52.305Z,14.20
2018-05-10T05:21:20.597Z,14.20
2018-05-10T05:23:48.880Z,14.30
2018-05-10T05:26:20.027Z,14.30
2018-05-10T05:28:48.488Z,14.40
2018-05-10T05:31:16.787Z,14.40
2018-05-10T05:33:44.287Z,14.40
2018-05-10T05:36:11.788Z,14.40
2018-05-10T05:38:40.077Z,14.50
2018-05-10T05:41:07.658Z,14.50
2018-05-10T05:43:35.920Z,14.60
2018-05-10T05:46:03.428Z,14.60
2018-05-10T05:48:30.949Z,14.60
2018-05-10T05:50:58.449Z,14.80
2018-05-10T05:53:25.983Z,14.80
2018-05-10T05:55:53.481Z,14.80
2018-05-10T05:58:21.749Z,14.90
2018-05-10T06:00:49.453Z,14.90
2018-05-10T06:03:16.789Z,14.90
2018-05-10T06:05:45.080Z,15.00
2018-05-10T06:08:12.585Z,15.00
2018-05-10T06:10:40.684Z,15.00
2018-05-10T06:13:08.954Z,15.20
2018-05-10T06:15:36.555Z,15.10
2018-05-10T06:18:03.997Z,15.20
2018-05-10T06:20:31.501Z,15.30
2018-05-10T06:22:59.025Z,15.40
2018-05-10T06:25:26.531Z,15.40
2018-05-10T06:27:54.061Z,15.60
2018-05-10T06:30:21.560Z,15.60
2018-05-10T06:32:49.081Z,15.70
2018-05-10T06:35:16.580Z,15.80
2018-05-10T06:37:44.082Z,15.90
2018-05-10T06:40:11.605Z,16.00
2018-05-10T06:42:39.097Z,16.10
2018-05-10T06:45:06.622Z,16.10
2018-05-10T06:47:34.952Z,16.20
2018-05-10T06:50:02.485Z,16.20
2018-05-10T06:52:29.984Z,16.30
2018-05-10T06:54:57.489Z,16.40
2018-05-10T06:57:25.782Z,16.50
2018-05-10T06:59:53.285Z,16.50
2018-05-10T07:02:20.812Z,16.60
2018-05-10T07:04:48.312Z,16.70
2018-05-10T07:07:15.841Z,16.70
2018-05-10T07:09:43.457Z,16.80
2018-05-10T07:12:11.625Z,16.90
2018-05-10T07:14:39.912Z,16.90
2018-05-10T07:17:08.177Z,17.00
2018-05-10T07:19:36.465Z,17.10
2018-05-10T07:22:04.733Z,17.20
2018-05-10T07:24:33.021Z,17.20
2018-05-10T07:27:01.289Z,17.20
2018-05-10T07:29:29.557Z,17.30
2018-05-10T07:31:57.845Z,17.40
2018-05-10T07:34:27.717Z,17.40
2018-05-10T07:36:55.242Z,17.40
2018-05-10T07:39:22.741Z,17.50
2018-05-10T07:41:50.261Z,17.50
2018-05-10T07:44:17.763Z,17.60
2018-05-10T07:46:45.269Z,17.70
2018-05-10T07:49:12.792Z,17.80
2018-05-10T07:51:41.056Z,17.90
2018-05-10T07:54:08.582Z,17.90
2018-05-10T07:56:36.082Z,18.00
2018-05-10T07:59:03.609Z,18.10
2018-05-10T08:01:31.327Z,18.20
2018-05-10T08:03:59.616Z,18.30
2018-05-10T08:06:27.117Z,18.30
2018-05-10T08:08:54.621Z,18.40
2018-05-10T08:11:22.909Z,18.50
2018-05-10T08:13:50.424Z,18.50
2018-05-10T08:16:19.454Z,18.70
2018-05-10T08:18:47.721Z,18.80
2018-05-10T08:21:16.009Z,18.90
2018-05-10T08:23:49.081Z,18.80
2018-05-10T08:26:17.378Z,19.00
2018-05-10T08:28:44.880Z,19.00
2018-05-10T08:31:12.385Z,19.10
2018-05-10T08:33:40.677Z,19.30
2018-05-10T08:36:08.183Z,19.30
2018-05-10T08:38:35.720Z,19.40
2018-05-10T08:41:03.219Z,19.40
2018-05-10T08:43:30.745Z,19.50
2018-05-10T08:45:58.247Z,19.40
2018-05-10T08:48:26.538Z,19.60
2018-05-10T08:50:54.040Z,19.50
2018-05-10T08:53:21.569Z,19.70
2018-05-10T08:55:49.074Z,19.70
2018-05-10T08:58:17.345Z,19.90
2018-05-10T09:00:44.873Z,19.90
2018-05-10T09:03:12.373Z,19.90
2018-05-10T09:05:39.895Z,20.10
2018-05-10T09:08:07.392Z,20.20
2018-05-10T09:10:34.913Z,20.30
2018-05-10T09:13:02.404Z,20.40
2018-05-10T09:15:29.940Z,20.50
2018-05-10T09:17:57.436Z,20.60
2018-05-10T09:20:24.933Z,20.60
2018-05-10T09:22:52.458Z,20.80
2018-05-10T09:25:20.723Z,21.00
2018-05-10T09:27:48.246Z,21.00
2018-05-10T09:30:15.748Z,21.20
2018-05-10T09:32:43.277Z,21.30
2018-05-10T09:35:10.776Z,21.40
2018-05-10T09:37:39.041Z,21.70
2018-05-10T09:40:06.570Z,21.60
2018-05-10T09:42:34.064Z,21.80
2018-05-10T09:45:02.344Z,22.20
2018-05-10T09:47:30.609Z,22.50
2018-05-10T09:49:58.905Z,22.70
2018-05-10T09:52:27.172Z,22.80
2018-05-10T09:54:55.465Z,22.80
2018-05-10T09:57:22.956Z,22.80
2018-05-10T09:59:50.535Z,22.90
2018-05-10T10:02:18.753Z,23.50
2018-05-10T10:04:47.018Z,23.60
2018-05-10T10:07:15.301Z,23.80
2018-05-10T10:09:43.565Z,24.20
2018-05-10T10:12:11.081Z,24.10
2018-05-10T10:14:38.573Z,24.20
2018-05-10T10:17:06.069Z,24.10
2018-05-10T10:19:33.597Z,23.70
2018-05-10T10:22:01.093Z,23.40
2018-05-10T10:24:28.609Z,23.50
2018-05-10T10:26:56.105Z,23.70
2018-05-10T10:29:23.616Z,24.10
2018-05-10T10:31:51.108Z,24.40
2018-05-10T10:34:19.388Z,24.50
2018-05-10T10:36:47.648Z,24.10
2018-05-10T10:39:15.913Z,23.90
2018-05-10T10:41:43.428Z,23.90
2018-05-10T10:44:10.941Z,23.70
2018-05-10T10:46:39.229Z,23.20
2018-05-10T10:49:07.493Z,23.20
2018-05-10T10:51:35.777Z,23.30
2018-05-10T10:54:04.041Z,23.70
2018-05-10T10:56:31.532Z,23.70
2018-05-10T10:58:59.053Z,24.30
2018-05-10T11:01:26.546Z,24.40
2018-05-10T11:03:54.073Z,24.40
2018-05-10T11:06:21.564Z,24.40
2018-05-10T11:08:49.178Z,24.50
2018-05-10T11:11:17.365Z,25.10
2018-05-10T11:13:44.880Z,25.10
2018-05-10T11:16:12.377Z,24.90
2018-05-10T11:18:40.645Z,24.20
2018-05-10T11:21:08.161Z,24.20
2018-05-10T11:23:35.657Z,23.90
2018-05-10T11:26:03.182Z,23.80
2018-05-10T11:28:30.680Z,23.60
2018-05-10T11:30:58.196Z,23.40
2018-05-10T11:33:25.692Z,23.10
2018-05-10T11:35:53.189Z,22.80
2018-05-10T11:38:21.469Z,22.00
2018-05-10T11:40:49.725Z,21.50
2018-05-10T11:43:18.017Z,21.20
2018-05-10T11:45:46.281Z,21.00
2018-05-10T11:48:14.567Z,20.80
2018-05-10T11:50:42.829Z,20.70
2018-05-10T11:53:10.348Z,20.60
2018-05-10T11:55:37.840Z,20.50
2018-05-10T11:58:05.342Z,20.20
2018-05-10T12:00:32.873Z,19.80
2018-05-10T12:03:01.140Z,19.10
2018-05-10T12:05:29.433Z,18.80
2018-05-10T12:07:57.702Z,18.50
2018-05-10T12:10:25.996Z,18.40
2018-05-10T12:12:53.513Z,18.30
2018-05-10T12:15:21.045Z,18.30
2018-05-10T12:17:48.550Z,18.20
2018-05-10T12:20:16.820Z,18.30
2018-05-10T12:22:44.348Z,18.30
2018-05-10T12:25:11.853Z,18.50
2018-05-10T12:27:40.140Z,18.60
2018-05-10T12:30:08.405Z,18.90
2018-05-10T12:32:36.697Z,19.20
2018-05-10T12:35:04.205Z,19.20
2018-05-10T12:37:31.738Z,19.50
2018-05-10T12:39:59.241Z,19.70
2018-05-10T12:42:28.264Z,20.50
2018-05-10T12:44:55.768Z,20.50
2018-05-10T12:47:23.280Z,20.90
2018-05-10T12:49:51.569Z,21.80
2018-05-10T12:52:19.073Z,21.70
2018-05-10T12:54:46.601Z,22.80
2018-05-10T12:57:14.108Z,24.50
2018-05-10T12:59:41.637Z,25.30
2018-05-10T13:02:09.141Z,26.10
2018-05-10T13:04:37.417Z,28.20
2018-05-10T13:07:05.717Z,28.90
2018-05-10T13:09:33.220Z,28.90
2018-05-10T13:12:00.756Z,28.90
2018-05-10T13:14:28.274Z,28.70
2018-05-10T13:16:56.564Z,26.40
2018-05-10T13:19:24.119Z,26.40
2018-05-10T13:21:51.696Z,25.00
2018-05-10T13:24:19.136Z,24.30
2018-05-10T13:26:46.641Z,23.60
2018-05-10T13:29:14.168Z,23.10
2018-05-10T13:31:41.675Z,22.60
2018-05-10T13:34:09.206Z,22.10
2018-05-10T13:36:36.708Z,21.90
2018-05-10T13:39:05.709Z,21.80
2018-05-10T13:41:33.977Z,22.00
2018-05-10T13:44:01.476Z,22.00
2018-05-10T13:46:29.000Z,22.10
2018-05-10T13:48:57.264Z,22.10
2018-05-10T13:51:24.788Z,22.10
2018-05-10T13:53:52.288Z,22.10
2018-05-10T13:56:20.577Z,21.80
2018-05-10T13:58:48.845Z,21.80
2018-05-10T14:01:17.203Z,21.50
2018-05-10T14:03:44.717Z,21.40
2018-05-10T14:06:12.219Z,21.30
2018-05-10T14:08:39.745Z,21.00
2018-05-10T14:11:07.308Z,20.70
2018-05-10T14:13:35.552Z,20.80
2018-05-10T14:16:03.060Z,20.80
2018-05-10T14:18:30.593Z,20.90
2018-05-10T14:20:58.089Z,20.80
2018-05-10T14:23:25.618Z,20.80
2018-05-10T14:25:53.129Z,20.80
2018-05-10T14:28:21.392Z,21.40
2018-05-10T14:30:48.913Z,21.40
2018-05-10T14:33:16.442Z,21.90
2018-05-10T14:35:43.966Z,22.20
2018-05-10T14:38:11.473Z,22.50
2018-05-10T14:40:39.025Z,22.90
2018-05-10T14:43:06.533Z,23.00
2018-05-10T14:45:34.041Z,23.00
2018-05-10T14:48:01.565Z,22.90
2018-05-10T14:50:29.065Z,22.90
2018-05-10T14:52:56.589Z,22.70
2018-05-10T14:55:24.088Z,22.20
2018-05-10T14:57:51.613Z,21.90
2018-05-10T15:00:19.884Z,21.90
2018-05-10T15:02:48.173Z,21.90
2018-05-10T15:05:16.437Z,21.90
2018-05-10T15:07:44.706Z,21.80
2018-05-10T15:10:12.233Z,21.80
2018-05-10T15:12:39.733Z,21.40
2018-05-10T15:15:08.025Z,20.90
2018-05-10T15:17:36.292Z,20.90
2018-05-10T15:20:04.589Z,21.00
2018-05-10T15:22:32.089Z,21.00
2018-05-10T15:24:59.589Z,21.10
2018-05-10T15:27:27.876Z,21.30
2018-05-10T15:29:55.377Z,21.20
2018-05-10T15:32:22.904Z,21.30
2018-05-10T15:34:50.409Z,21.00
2018-05-10T15:37:17.936Z,20.90
2018-05-10T15:39:45.444Z,20.90
2018-05-10T15:42:13.732Z,21.10
2018-05-10T15:44:41.997Z,21.10
2018-05-10T15:47:10.264Z,21.10
2018-05-10T15:49:37.835Z,21.10
2018-05-10T15:52:05.308Z,21.00
2018-05-10T15:54:33.602Z,20.70
2018-05-10T15:57:01.103Z,20.70
2018-05-10T15:59:28.683Z,20.70
2018-05-10T16:01:56.156Z,20.50
2018-05-10T16:04:24.445Z,20.30
2018-05-10T16:06:51.951Z,20.30
2018-05-10T16:09:19.481Z,20.20
2018-05-10T16:11:46.984Z,19.80
2018-05-10T16:14:14.485Z,19.50
2018-05-10T16:16:42.013Z,19.30
2018-05-10T16:19:09.540Z,19.20
2018-05-10T16:21:37.060Z,19.00
2018-05-10T16:24:04.561Z,18.90
2018-05-10T16:26:32.120Z,18.80
2018-05-10T16:28:59.607Z,18.80
2018-05-10T16:31:27.132Z,18.70
2018-05-10T16:33:54.648Z,18.50
2018-05-10T16:36:22.148Z,18.50
2018-05-10T16:38:49.673Z,18.60
2018-05-10T16:41:17.175Z,18.60
2018-05-10T16:43:44.702Z,18.60
2018-05-10T16:46:12.201Z,18.50
2018-05-10T16:48:41.232Z,18.40
2018-05-10T16:51:09.514Z,18.40
2018-05-10T16:53:37.037Z,18.30
2018-05-10T16:56:04.537Z,18.20
2018-05-10T16:58:32.065Z,18.10
2018-05-10T17:01:00.334Z,17.90
2018-05-10T17:03:27.837Z,17.90
2018-05-10T17:05:55.361Z,17.90
2018-05-10T17:08:23.629Z,17.80
2018-05-10T17:10:51.152Z,17.80
2018-05-10T17:13:18.661Z,17.70
2018-05-10T17:15:46.949Z,17.70
2018-05-10T17:18:14.457Z,17.70
2018-05-10T17:20:41.985Z,17.80
2018-05-10T17:23:09.486Z,17.80
2018-05-10T17:25:36.993Z,17.70
2018-05-10T17:28:04.518Z,17.60
2018-05-10T17:30:32.025Z,17.50
2018-05-10T17:32:59.552Z,17.40
2018-05-10T17:35:27.812Z,17.20
2018-05-10T17:37:55.340Z,17.10
2018-05-10T17:40:22.837Z,17.10
2018-05-10T17:42:50.349Z,17.10
2018-05-10T17:45:17.868Z,17.00
2018-05-10T17:47:46.125Z,16.90
2018-05-10T17:50:13.645Z,16.80
2018-05-10T17:52:41.136Z,16.80
2018-05-10T17:55:08.662Z,16.80
2018-05-10T17:57:36.152Z,16.80
2018-05-10T18:00:03.673Z,16.80
2018-05-10T18:02:31.165Z,16.80
2018-05-10T18:04:58.656Z,16.70
2018-05-10T18:07:26.181Z,16.70
2018-05-10T18:09:55.185Z,16.60
2018-05-10T18:12:22.701Z,16.60
2018-05-10T18:14:50.193Z,16.50
2018-05-10T18:17:17.709Z,16.50
2018-05-10T18:19:45.209Z,16.40
2018-05-10T18:22:13.477Z,16.20
2018-05-10T18:24:40.993Z,16.20
2018-05-10T18:27:08.494Z,16.20
2018-05-10T18:29:36.005Z,16.30
2018-05-10T18:32:03.497Z,16.20
2018-05-10T18:34:31.016Z,16.20
2018-05-10T18:36:58.516Z,16.10
2018-05-10T18:39:26.017Z,16.00
2018-05-10T18:41:54.310Z,15.80
2018-05-10T18:44:21.809Z,15.80
2018-05-10T18:46:49.333Z,15.70
2018-05-10T18:49:16.831Z,15.60
2018-05-10T18:51:44.356Z,15.60
2018-05-10T18:54:11.856Z,15.60
2018-05-10T18:56:39.380Z,15.60
2018-05-10T18:59:06.881Z,15.50
2018-05-10T19:01:34.393Z,15.40
2018-05-10T19:04:01.921Z,15.50
2018-05-10T19:06:30.188Z,15.50
2018-05-10T19:08:57.713Z,15.50
2018-05-10T19:11:25.213Z,15.50
2018-05-10T19:13:53.503Z,15.50
2018-05-10T19:16:21.005Z,15.50
2018-05-10T19:18:48.504Z,15.50
2018-05-10T19:21:16.793Z,15.40
2018-05-10T19:23:45.062Z,15.50
2018-05-10T19:26:13.356Z,15.50
2018-05-10T19:28:40.861Z,15.40
2018-05-10T19:31:08.381Z,15.40
2018-05-10T19:33:35.880Z,15.40
2018-05-10T19:36:03.380Z,15.40
2018-05-10T19:38:30.918Z,15.40
2018-05-10T19:40:58.421Z,15.40
2018-05-10T19:43:25.946Z,15.50
2018-05-10T19:45:54.273Z,15.40
2018-05-10T19:48:22.528Z,15.40
2018-05-10T19:50:50.029Z,15.40
2018-05-10T19:53:17.531Z,15.30
2018-05-10T19:55:45.065Z,15.40
2018-05-10T19:58:13.341Z,15.30
2018-05-10T20:00:41.485Z,15.40
2018-05-10T20:03:08.989Z,15.40
2018-05-10T20:05:37.278Z,15.40
2018-05-10T20:08:04.778Z,15.40
2018-05-10T20:10:32.301Z,15.40
2018-05-10T20:12:59.805Z,15.30
2018-05-10T20:15:27.308Z,15.30
2018-05-10T20:17:55.689Z,15.20
2018-05-10T20:20:23.189Z,15.20
2018-05-10T20:22:50.711Z,15.20
2018-05-10T20:25:18.224Z,15.20
2018-05-10T20:27:46.513Z,15.20
2018-05-10T20:30:15.524Z,15.20
2018-05-10T20:32:43.819Z,15.20
2018-05-10T20:35:11.321Z,15.20
2018-05-10T20:37:38.827Z,15.20
2018-05-10T20:40:07.118Z,15.20
2018-05-10T20:42:34.624Z,15.20
2018-05-10T20:45:02.148Z,15.20
2018-05-10T20:47:29.657Z,15.20
2018-05-10T20:49:57.189Z,15.10
2018-05-10T20:52:24.689Z,15.10
2018-05-10T20:54:52.961Z,15.00
2018-05-10T20:57:21.253Z,15.00
2018-05-10T20:59:48.752Z,15.00
2018-05-10T21:02:16.272Z,15.00
2018-05-10T21:04:43.777Z,15.00
2018-05-10T21:07:11.305Z,15.00
2018-05-10T21:09:38.810Z,15.00
2018-05-10T21:12:06.337Z,15.00
2018-05-10T21:14:33.837Z,15.00
2018-05-10T21:17:01.369Z,14.90
2018-05-10T21:19:28.896Z,14.80
2018-05-10T21:21:56.399Z,14.80
2018-05-10T21:24:23.920Z,14.80
2018-05-10T21:26:51.421Z,14.90
2018-05-10T21:29:19.714Z,14.80
2018-05-10T21:31:47.981Z,14.80
2018-05-10T21:34:16.245Z,14.90
2018-05-10T21:36:44.537Z,14.80
2018-05-10T21:39:12.037Z,14.80
2018-05-10T21:41:39.560Z,14.90
2018-05-10T21:44:07.825Z,14.80
2018-05-10T21:46:35.354Z,14.80
2018-05-10T21:49:02.858Z,14.80
2018-05-10T21:51:31.125Z,14.80
2018-05-10T21:53:58.649Z,14.80
2018-05-10T21:56:26.162Z,14.80
2018-05-10T21:58:53.689Z,14.80
2018-05-10T22:01:21.194Z,14.90
2018-05-10T22:03:48.733Z,14.90
2018-05-10T22:06:17.012Z,14.80
2018-05-10T22:08:45.322Z,14.80
2018-05-10T22:11:12.824Z,14.80
2018-05-10T22:13:40.320Z,14.80
2018-05-10T22:16:07.845Z,14.70
2018-05-10T22:18:35.385Z,14.70
2018-05-10T22:21:02.889Z,14.80
2018-05-10T22:23:30.388Z,14.70
2018-05-10T22:25:57.913Z,14.60
2018-05-10T22:28:25.413Z,14.70
2018-05-10T22:30:52.912Z,14.70
2018-05-10T22:33:21.205Z,14.60
2018-05-10T22:35:48.705Z,14.60
2018-05-10T22:38:16.230Z,14.60
2018-05-10T22:40:43.813Z,14.70
2018-05-10T22:43:11.341Z,14.60
2018-05-10T22:45:38.840Z,14.60
2018-05-10T22:48:06.349Z,14.60
2018-05-10T22:50:33.877Z,14.60
2018-05-10T22:53:02.145Z,14.50
2018-05-10T22:55:29.668Z,14.50
2018-05-10T22:57:57.170Z,14.50
2018-05-10T23:00:24.701Z,14.50
2018-05-10T23:02:52.197Z,14.40
2018-05-10T23:05:19.700Z,14.40
2018-05-10T23:07:47.224Z,14.40
2018-05-10T23:10:15.488Z,14.40
2018-05-10T23:12:43.013Z,14.40
2018-05-10T23:15:10.513Z,14.40
2018-05-10T23:17:38.806Z,14.40
2018-05-10T23:20:07.068Z,14.50
2018-05-10T23:22:35.332Z,14.50
2018-05-10T23:25:02.856Z,14.40
2018-05-10T23:27:30.368Z,14.50
2018-05-10T23:29:58.660Z,14.50
2018-05-10T23:32:26.160Z,14.40
2018-05-10T23:34:53.686Z,14.50
2018-05-10T23:37:21.192Z,14.50
2018-05-10T23:39:48.722Z,14.50
2018-05-10T23:42:16.221Z,14.50
2018-05-10T23:44:43.725Z,14.50
2018-05-10T23:47:11.248Z,14.50
2018-05-10T23:49:39.521Z,14.50
2018-05-10T23:52:07.813Z,14.50
2018-05-10T23:54:36.080Z,14.50
2018-05-10T23:57:03.621Z,14.50
2018-05-10T23:59:31.121Z,14.50
